Bearsden, United Kingdom
Current Conditions -  °F | °C
As of 6:20 PM on Thursday 30 Oct 2014 (Local Time) from EGPF Reporting Station
Haze Haze  
Wind Chill: 50°   Ceiling: 2400
Heat Index: 50°   Visibility: 2.4mi
Dew Point: 50°   Wind: 1mph
Humidity: 100%   Direction: 230°SW
Pressure: 29.85"   Gusts: NA
Location:  55.92°N, 4.33°W
Report Text: EGPF 301820Z AUTO 23001KT 3900 BR OVC024 10/10 Q1011
Loading
Personal Weather Stations






























Interactive Weather Map New forecast layout! Learn more

10-Day Weather Forecast

Advertisements
Track Severe Weather on mobile